sensor_id;sensor_type;location;lat;lon;timestamp;P1;durP1;ratioP1;P2;durP2;ratioP2
41466;SDS011;72625;53.700;19.958;2024-02-23T00:04:28;7.00;;;6.50;;
41466;SDS011;72625;53.700;19.958;2024-02-23T00:09:37;6.90;;;6.40;;
41466;SDS011;72625;53.700;19.958;2024-02-23T00:14:41;6.50;;;6.00;;
41466;SDS011;72625;53.700;19.958;2024-02-23T00:19:45;7.00;;;6.50;;
41466;SDS011;72625;53.700;19.958;2024-02-23T00:24:50;7.30;;;6.70;;
41466;SDS011;72625;53.700;19.958;2024-02-23T00:29:56;6.30;;;5.80;;
41466;SDS011;72625;53.700;19.958;2024-02-23T00:35:00;6.80;;;6.30;;
41466;SDS011;72625;53.700;19.958;2024-02-23T00:40:07;7.10;;;6.60;;
41466;SDS011;72625;53.700;19.958;2024-02-23T00:45:16;6.20;;;5.70;;
41466;SDS011;72625;53.700;19.958;2024-02-23T00:50:25;6.80;;;6.30;;
41466;SDS011;72625;53.700;19.958;2024-02-23T00:55:49;6.60;;;6.10;;
41466;SDS011;72625;53.700;19.958;2024-02-23T01:01:05;6.30;;;5.80;;
41466;SDS011;72625;53.700;19.958;2024-02-23T01:11:54;7.10;;;6.50;;
41466;SDS011;72625;53.700;19.958;2024-02-23T01:17:21;6.20;;;5.80;;
41466;SDS011;72625;53.700;19.958;2024-02-23T01:22:24;6.30;;;5.80;;
41466;SDS011;72625;53.700;19.958;2024-02-23T01:27:27;6.70;;;6.30;;
41466;SDS011;72625;53.700;19.958;2024-02-23T01:32:31;6.40;;;5.90;;
41466;SDS011;72625;53.700;19.958;2024-02-23T01:43:04;6.90;;;6.40;;
41466;SDS011;72625;53.700;19.958;2024-02-23T01:48:07;5.80;;;5.40;;
41466;SDS011;72625;53.700;19.958;2024-02-23T01:53:12;6.00;;;5.60;;
41466;SDS011;72625;53.700;19.958;2024-02-23T01:58:16;6.80;;;6.30;;
41466;SDS011;72625;53.700;19.958;2024-02-23T02:03:22;6.30;;;5.80;;
41466;SDS011;72625;53.700;19.958;2024-02-23T02:08:38;5.40;;;5.00;;
41466;SDS011;72625;53.700;19.958;2024-02-23T02:13:51;6.90;;;6.40;;
41466;SDS011;72625;53.700;19.958;2024-02-23T02:18:54;6.00;;;5.60;;
41466;SDS011;72625;53.700;19.958;2024-02-23T02:23:58;5.10;;;4.80;;
41466;SDS011;72625;53.700;19.958;2024-02-23T02:29:04;5.60;;;5.20;;
41466;SDS011;72625;53.700;19.958;2024-02-23T02:34:15;5.90;;;5.40;;
41466;SDS011;72625;53.700;19.958;2024-02-23T02:39:18;6.30;;;5.80;;
41466;SDS011;72625;53.700;19.958;2024-02-23T02:44:31;6.40;;;5.90;;
41466;SDS011;72625;53.700;19.958;2024-02-23T02:49:44;5.60;;;5.20;;
41466;SDS011;72625;53.700;19.958;2024-02-23T02:55:10;5.80;;;5.40;;
41466;SDS011;72625;53.700;19.958;2024-02-23T03:00:25;6.40;;;5.90;;
41466;SDS011;72625;53.700;19.958;2024-02-23T03:05:38;4.70;;;4.30;;
41466;SDS011;72625;53.700;19.958;2024-02-23T03:10:54;5.80;;;5.40;;
41466;SDS011;72625;53.700;19.958;2024-02-23T03:15:57;5.40;;;5.00;;
41466;SDS011;72625;53.700;19.958;2024-02-23T03:21:03;5.00;;;4.60;;
41466;SDS011;72625;53.700;19.958;2024-02-23T03:26:18;5.10;;;4.70;;
41466;SDS011;72625;53.700;19.958;2024-02-23T03:31:25;5.00;;;4.60;;
41466;SDS011;72625;53.700;19.958;2024-02-23T03:36:29;4.90;;;4.50;;
41466;SDS011;72625;53.700;19.958;2024-02-23T03:41:39;5.40;;;5.00;;
41466;SDS011;72625;53.700;19.958;2024-02-23T03:46:42;4.60;;;4.30;;
41466;SDS011;72625;53.700;19.958;2024-02-23T03:51:49;4.90;;;4.50;;
41466;SDS011;72625;53.700;19.958;2024-02-23T03:57:01;5.10;;;4.70;;
41466;SDS011;72625;53.700;19.958;2024-02-23T04:07:50;4.30;;;4.00;;
41466;SDS011;72625;53.700;19.958;2024-02-23T04:12:53;4.80;;;4.50;;
41466;SDS011;72625;53.700;19.958;2024-02-23T04:18:00;4.90;;;4.50;;
41466;SDS011;72625;53.700;19.958;2024-02-23T04:23:09;4.70;;;4.40;;
41466;SDS011;72625;53.700;19.958;2024-02-23T04:28:26;5.60;;;5.20;;
41466;SDS011;72625;53.700;19.958;2024-02-23T04:33:34;4.60;;;4.30;;
41466;SDS011;72625;53.700;19.958;2024-02-23T04:38:42;4.30;;;4.00;;
41466;SDS011;72625;53.700;19.958;2024-02-23T04:43:50;4.20;;;4.00;;
41466;SDS011;72625;53.700;19.958;2024-02-23T04:49:05;4.10;;;3.90;;
41466;SDS011;72625;53.700;19.958;2024-02-23T04:54:08;4.80;;;4.50;;
41466;SDS011;72625;53.700;19.958;2024-02-23T04:59:12;4.40;;;4.10;;
41466;SDS011;72625;53.700;19.958;2024-02-23T05:04:16;5.00;;;4.70;;
41466;SDS011;72625;53.700;19.958;2024-02-23T05:09:22;4.20;;;4.00;;
41466;SDS011;72625;53.700;19.958;2024-02-23T05:14:26;4.70;;;4.40;;
41466;SDS011;72625;53.700;19.958;2024-02-23T05:19:30;5.10;;;4.70;;
41466;SDS011;72625;53.700;19.958;2024-02-23T05:24:33;4.40;;;4.10;;
41466;SDS011;72625;53.700;19.958;2024-02-23T05:29:37;3.90;;;3.70;;
41466;SDS011;72625;53.700;19.958;2024-02-23T05:34:40;3.90;;;3.60;;
41466;SDS011;72625;53.700;19.958;2024-02-23T05:39:44;3.50;;;3.30;;
41466;SDS011;72625;53.700;19.958;2024-02-23T05:44:50;3.30;;;3.10;;
41466;SDS011;72625;53.700;19.958;2024-02-23T05:50:05;3.30;;;3.10;;
41466;SDS011;72625;53.700;19.958;2024-02-23T05:55:14;5.00;;;3.80;;
41466;SDS011;72625;53.700;19.958;2024-02-23T06:00:38;3.70;;;3.50;;
41466;SDS011;72625;53.700;19.958;2024-02-23T06:05:42;4.70;;;4.30;;
41466;SDS011;72625;53.700;19.958;2024-02-23T06:10:45;3.40;;;3.20;;
41466;SDS011;72625;53.700;19.958;2024-02-23T06:15:49;3.90;;;3.60;;
41466;SDS011;72625;53.700;19.958;2024-02-23T06:20:53;4.10;;;3.80;;
41466;SDS011;72625;53.700;19.958;2024-02-23T06:25:59;3.60;;;3.40;;
41466;SDS011;72625;53.700;19.958;2024-02-23T06:31:24;3.50;;;3.30;;
41466;SDS011;72625;53.700;19.958;2024-02-23T06:36:27;3.50;;;3.30;;
41466;SDS011;72625;53.700;19.958;2024-02-23T06:41:38;2.90;;;2.70;;
41466;SDS011;72625;53.700;19.958;2024-02-23T06:46:42;3.30;;;3.10;;
41466;SDS011;72625;53.700;19.958;2024-02-23T06:51:54;12.10;;;11.30;;
41466;SDS011;72625;53.700;19.958;2024-02-23T06:56:57;4.40;;;4.10;;
41466;SDS011;72625;53.700;19.958;2024-02-23T07:02:01;6.70;;;6.20;;
41466;SDS011;72625;53.700;19.958;2024-02-23T07:07:05;5.70;;;5.30;;
41466;SDS011;72625;53.700;19.958;2024-02-23T07:12:12;4.30;;;4.00;;
41466;SDS011;72625;53.700;19.958;2024-02-23T07:17:17;4.30;;;4.00;;
41466;SDS011;72625;53.700;19.958;2024-02-23T07:22:20;4.90;;;4.60;;
41466;SDS011;72625;53.700;19.958;2024-02-23T07:27:25;3.90;;;3.70;;
41466;SDS011;72625;53.700;19.958;2024-02-23T07:32:38;11.30;;;10.60;;
41466;SDS011;72625;53.700;19.958;2024-02-23T07:37:57;4.30;;;4.10;;
41466;SDS011;72625;53.700;19.958;2024-02-23T07:43:01;53.30;;;49.70;;
41466;SDS011;72625;53.700;19.958;2024-02-23T07:48:12;7.80;;;7.00;;
41466;SDS011;72625;53.700;19.958;2024-02-23T07:53:16;12.10;;;11.30;;
41466;SDS011;72625;53.700;19.958;2024-02-23T07:58:20;14.70;;;13.00;;
41466;SDS011;72625;53.700;19.958;2024-02-23T08:03:24;5.80;;;5.40;;
41466;SDS011;72625;53.700;19.958;2024-02-23T08:08:29;35.20;;;32.50;;
41466;SDS011;72625;53.700;19.958;2024-02-23T08:13:35;13.90;;;12.60;;
41466;SDS011;72625;53.700;19.958;2024-02-23T08:18:39;11.20;;;10.40;;
41466;SDS011;72625;53.700;19.958;2024-02-23T08:23:43;7.70;;;7.30;;
41466;SDS011;72625;53.700;19.958;2024-02-23T08:33:50;11.30;;;10.30;;
41466;SDS011;72625;53.700;19.958;2024-02-23T08:38:54;5.00;;;4.70;;
41466;SDS011;72625;53.700;19.958;2024-02-23T08:43:57;5.90;;;5.50;;
41466;SDS011;72625;53.700;19.958;2024-02-23T08:49:01;3.90;;;3.60;;
41466;SDS011;72625;53.700;19.958;2024-02-23T08:54:04;5.40;;;5.00;;
41466;SDS011;72625;53.700;19.958;2024-02-23T08:59:09;11.70;;;10.80;;
41466;SDS011;72625;53.700;19.958;2024-02-23T09:04:13;10.90;;;10.10;;
41466;SDS011;72625;53.700;19.958;2024-02-23T09:09:17;7.10;;;6.60;;
41466;SDS011;72625;53.700;19.958;2024-02-23T09:14:20;14.00;;;13.00;;
41466;SDS011;72625;53.700;19.958;2024-02-23T09:19:24;14.90;;;13.80;;
41466;SDS011;72625;53.700;19.958;2024-02-23T09:24:27;9.10;;;8.40;;
41466;SDS011;72625;53.700;19.958;2024-02-23T09:29:31;16.20;;;15.00;;
41466;SDS011;72625;53.700;19.958;2024-02-23T09:39:39;4.40;;;4.10;;
41466;SDS011;72625;53.700;19.958;2024-02-23T09:44:45;2.90;;;2.70;;
41466;SDS011;72625;53.700;19.958;2024-02-23T09:49:50;2.10;;;2.00;;
41466;SDS011;72625;53.700;19.958;2024-02-23T09:54:56;2.60;;;2.40;;
41466;SDS011;72625;53.700;19.958;2024-02-23T09:59:59;2.40;;;2.30;;
41466;SDS011;72625;53.700;19.958;2024-02-23T10:05:04;3.00;;;2.70;;
41466;SDS011;72625;53.700;19.958;2024-02-23T10:10:22;3.00;;;2.80;;
41466;SDS011;72625;53.700;19.958;2024-02-23T10:15:36;2.90;;;2.70;;
41466;SDS011;72625;53.700;19.958;2024-02-23T10:20:45;4.10;;;3.60;;
41466;SDS011;72625;53.700;19.958;2024-02-23T10:25:49;5.10;;;4.70;;
41466;SDS011;72625;53.700;19.958;2024-02-23T10:30:53;5.70;;;5.20;;
41466;SDS011;72625;53.700;19.958;2024-02-23T10:35:57;6.90;;;6.30;;
41466;SDS011;72625;53.700;19.958;2024-02-23T10:41:01;12.30;;;11.30;;
41466;SDS011;72625;53.700;19.958;2024-02-23T10:46:08;9.30;;;8.50;;
41466;SDS011;72625;53.700;19.958;2024-02-23T10:51:16;5.90;;;5.40;;
41466;SDS011;72625;53.700;19.958;2024-02-23T10:56:23;7.30;;;6.80;;
41466;SDS011;72625;53.700;19.958;2024-02-23T11:01:27;7.00;;;6.40;;
41466;SDS011;72625;53.700;19.958;2024-02-23T11:06:33;6.70;;;6.20;;
41466;SDS011;72625;53.700;19.958;2024-02-23T11:11:37;6.50;;;5.50;;
41466;SDS011;72625;53.700;19.958;2024-02-23T11:16:41;3.70;;;3.40;;
41466;SDS011;72625;53.700;19.958;2024-02-23T11:21:52;5.00;;;3.30;;
41466;SDS011;72625;53.700;19.958;2024-02-23T11:26:58;7.10;;;2.50;;
41466;SDS011;72625;53.700;19.958;2024-02-23T11:32:03;4.90;;;2.30;;
41466;SDS011;72625;53.700;19.958;2024-02-23T11:37:15;5.70;;;2.40;;
41466;SDS011;72625;53.700;19.958;2024-02-23T11:42:23;9.20;;;2.80;;
41466;SDS011;72625;53.700;19.958;2024-02-23T11:47:27;4.80;;;2.40;;
41466;SDS011;72625;53.700;19.958;2024-02-23T11:52:31;5.70;;;2.60;;
41466;SDS011;72625;53.700;19.958;2024-02-23T11:57:35;17.10;;;15.60;;
41466;SDS011;72625;53.700;19.958;2024-02-23T12:02:50;31.10;;;28.60;;
41466;SDS011;72625;53.700;19.958;2024-02-23T12:07:53;33.40;;;30.80;;
41466;SDS011;72625;53.700;19.958;2024-02-23T12:12:57;47.00;;;43.30;;
41466;SDS011;72625;53.700;19.958;2024-02-23T12:18:03;10.10;;;9.10;;
41466;SDS011;72625;53.700;19.958;2024-02-23T12:23:06;30.60;;;27.70;;
41466;SDS011;72625;53.700;19.958;2024-02-23T12:28:17;38.70;;;35.30;;
41466;SDS011;72625;53.700;19.958;2024-02-23T12:33:21;25.50;;;23.30;;
41466;SDS011;72625;53.700;19.958;2024-02-23T12:38:25;30.00;;;27.40;;
41466;SDS011;72625;53.700;19.958;2024-02-23T12:43:29;33.70;;;30.90;;
41466;SDS011;72625;53.700;19.958;2024-02-23T12:48:32;26.60;;;24.50;;
41466;SDS011;72625;53.700;19.958;2024-02-23T12:53:37;25.20;;;23.10;;
41466;SDS011;72625;53.700;19.958;2024-02-23T12:58:43;11.90;;;10.90;;
41466;SDS011;72625;53.700;19.958;2024-02-23T13:03:47;16.50;;;15.00;;
41466;SDS011;72625;53.700;19.958;2024-02-23T13:08:51;12.20;;;11.30;;
41466;SDS011;72625;53.700;19.958;2024-02-23T13:13:55;17.40;;;15.90;;
41466;SDS011;72625;53.700;19.958;2024-02-23T13:18:59;24.20;;;22.10;;
41466;SDS011;72625;53.700;19.958;2024-02-23T13:24:03;18.90;;;17.40;;
41466;SDS011;72625;53.700;19.958;2024-02-23T13:29:06;14.10;;;12.70;;
41466;SDS011;72625;53.700;19.958;2024-02-23T13:34:13;16.40;;;14.80;;
41466;SDS011;72625;53.700;19.958;2024-02-23T13:39:18;32.10;;;29.70;;
41466;SDS011;72625;53.700;19.958;2024-02-23T13:44:22;13.00;;;11.70;;
41466;SDS011;72625;53.700;19.958;2024-02-23T13:49:25;4.90;;;4.40;;
41466;SDS011;72625;53.700;19.958;2024-02-23T13:54:29;3.80;;;3.00;;
41466;SDS011;72625;53.700;19.958;2024-02-23T13:59:32;4.40;;;2.20;;
41466;SDS011;72625;53.700;19.958;2024-02-23T14:04:36;3.80;;;2.60;;
41466;SDS011;72625;53.700;19.958;2024-02-23T14:09:40;3.70;;;2.80;;
41466;SDS011;72625;53.700;19.958;2024-02-23T14:14:43;8.00;;;3.00;;
41466;SDS011;72625;53.700;19.958;2024-02-23T14:19:47;4.70;;;2.40;;
41466;SDS011;72625;53.700;19.958;2024-02-23T14:24:50;5.60;;;3.80;;
41466;SDS011;72625;53.700;19.958;2024-02-23T14:29:54;4.70;;;3.00;;
41466;SDS011;72625;53.700;19.958;2024-02-23T14:34:57;5.80;;;3.40;;
41466;SDS011;72625;53.700;19.958;2024-02-23T14:40:01;5.70;;;3.40;;
41466;SDS011;72625;53.700;19.958;2024-02-23T14:45:06;5.10;;;3.30;;
41466;SDS011;72625;53.700;19.958;2024-02-23T14:50:10;3.20;;;2.90;;
41466;SDS011;72625;53.700;19.958;2024-02-23T14:55:14;4.10;;;3.40;;
41466;SDS011;72625;53.700;19.958;2024-02-23T15:00:21;5.40;;;4.60;;
41466;SDS011;72625;53.700;19.958;2024-02-23T15:05:24;3.90;;;3.50;;
41466;SDS011;72625;53.700;19.958;2024-02-23T15:15:35;4.40;;;3.20;;
41466;SDS011;72625;53.700;19.958;2024-02-23T15:20:43;3.80;;;3.40;;
41466;SDS011;72625;53.700;19.958;2024-02-23T15:25:47;4.30;;;3.70;;
41466;SDS011;72625;53.700;19.958;2024-02-23T15:30:53;3.70;;;3.30;;
41466;SDS011;72625;53.700;19.958;2024-02-23T15:35:59;4.30;;;3.10;;
41466;SDS011;72625;53.700;19.958;2024-02-23T15:41:03;5.70;;;4.00;;
41466;SDS011;72625;53.700;19.958;2024-02-23T15:46:16;5.60;;;4.20;;
41466;SDS011;72625;53.700;19.958;2024-02-23T15:51:39;4.20;;;3.90;;
41466;SDS011;72625;53.700;19.958;2024-02-23T15:56:56;5.60;;;5.10;;
41466;SDS011;72625;53.700;19.958;2024-02-23T16:02:14;7.80;;;4.50;;
41466;SDS011;72625;53.700;19.958;2024-02-23T16:07:17;7.50;;;6.60;;
41466;SDS011;72625;53.700;19.958;2024-02-23T16:12:28;8.90;;;7.90;;
41466;SDS011;72625;53.700;19.958;2024-02-23T16:17:48;10.50;;;9.60;;
41466;SDS011;72625;53.700;19.958;2024-02-23T16:23:20;14.90;;;13.40;;
41466;SDS011;72625;53.700;19.958;2024-02-23T16:28:25;13.20;;;12.10;;
41466;SDS011;72625;53.700;19.958;2024-02-23T16:33:29;16.20;;;14.90;;
41466;SDS011;72625;53.700;19.958;2024-02-23T16:38:35;68.40;;;63.50;;
41466;SDS011;72625;53.700;19.958;2024-02-23T16:43:39;23.60;;;21.70;;
41466;SDS011;72625;53.700;19.958;2024-02-23T16:48:43;13.70;;;11.90;;
41466;SDS011;72625;53.700;19.958;2024-02-23T16:53:46;34.70;;;31.90;;
41466;SDS011;72625;53.700;19.958;2024-02-23T16:59:02;25.60;;;23.60;;
41466;SDS011;72625;53.700;19.958;2024-02-23T17:04:06;26.70;;;24.50;;
41466;SDS011;72625;53.700;19.958;2024-02-23T17:09:09;21.20;;;19.20;;
41466;SDS011;72625;53.700;19.958;2024-02-23T17:14:16;19.60;;;17.50;;
41466;SDS011;72625;53.700;19.958;2024-02-23T17:19:20;20.10;;;18.40;;
41466;SDS011;72625;53.700;19.958;2024-02-23T17:24:26;18.70;;;16.90;;
41466;SDS011;72625;53.700;19.958;2024-02-23T17:29:29;20.40;;;16.80;;
41466;SDS011;72625;53.700;19.958;2024-02-23T17:34:34;18.40;;;16.50;;
41466;SDS011;72625;53.700;19.958;2024-02-23T17:39:38;18.00;;;16.20;;
41466;SDS011;72625;53.700;19.958;2024-02-23T17:44:42;20.30;;;18.40;;
41466;SDS011;72625;53.700;19.958;2024-02-23T17:49:55;22.30;;;18.20;;
41466;SDS011;72625;53.700;19.958;2024-02-23T17:54:58;22.60;;;20.10;;
41466;SDS011;72625;53.700;19.958;2024-02-23T18:00:02;20.60;;;18.20;;
41466;SDS011;72625;53.700;19.958;2024-02-23T18:05:07;23.90;;;21.40;;
41466;SDS011;72625;53.700;19.958;2024-02-23T18:10:19;20.90;;;17.90;;
41466;SDS011;72625;53.700;19.958;2024-02-23T18:20:30;20.60;;;18.90;;
41466;SDS011;72625;53.700;19.958;2024-02-23T18:25:37;23.70;;;21.70;;
41466;SDS011;72625;53.700;19.958;2024-02-23T18:30:41;26.50;;;24.10;;
41466;SDS011;72625;53.700;19.958;2024-02-23T18:35:50;23.30;;;21.40;;
41466;SDS011;72625;53.700;19.958;2024-02-23T18:41:01;25.80;;;23.70;;
41466;SDS011;72625;53.700;19.958;2024-02-23T18:46:10;16.90;;;15.60;;
41466;SDS011;72625;53.700;19.958;2024-02-23T18:51:16;14.40;;;13.00;;
41466;SDS011;72625;53.700;19.958;2024-02-23T18:56:28;11.50;;;10.60;;
41466;SDS011;72625;53.700;19.958;2024-02-23T19:01:46;11.90;;;10.60;;
41466;SDS011;72625;53.700;19.958;2024-02-23T19:06:55;15.60;;;10.50;;
41466;SDS011;72625;53.700;19.958;2024-02-23T19:12:05;11.70;;;10.60;;
41466;SDS011;72625;53.700;19.958;2024-02-23T19:17:31;17.90;;;16.50;;
41466;SDS011;72625;53.700;19.958;2024-02-23T19:22:46;13.20;;;11.80;;
41466;SDS011;72625;53.700;19.958;2024-02-23T19:27:51;19.80;;;18.00;;
41466;SDS011;72625;53.700;19.958;2024-02-23T19:33:00;11.60;;;10.20;;
41466;SDS011;72625;53.700;19.958;2024-02-23T19:38:07;16.00;;;11.70;;
41466;SDS011;72625;53.700;19.958;2024-02-23T19:48:52;11.50;;;9.40;;
41466;SDS011;72625;53.700;19.958;2024-02-23T19:53:59;15.70;;;14.40;;
41466;SDS011;72625;53.700;19.958;2024-02-23T19:59:03;11.80;;;10.90;;
41466;SDS011;72625;53.700;19.958;2024-02-23T20:04:07;8.50;;;7.70;;
41466;SDS011;72625;53.700;19.958;2024-02-23T20:09:23;6.40;;;5.90;;
41466;SDS011;72625;53.700;19.958;2024-02-23T20:14:51;9.50;;;8.60;;
41466;SDS011;72625;53.700;19.958;2024-02-23T20:20:06;9.50;;;8.50;;
41466;SDS011;72625;53.700;19.958;2024-02-23T20:25:31;10.10;;;8.70;;
41466;SDS011;72625;53.700;19.958;2024-02-23T20:30:35;9.10;;;8.20;;
41466;SDS011;72625;53.700;19.958;2024-02-23T20:35:39;8.80;;;8.10;;
41466;SDS011;72625;53.700;19.958;2024-02-23T20:41:04;8.20;;;7.60;;
41466;SDS011;72625;53.700;19.958;2024-02-23T20:46:08;10.70;;;9.70;;
41466;SDS011;72625;53.700;19.958;2024-02-23T20:51:11;11.80;;;10.80;;
41466;SDS011;72625;53.700;19.958;2024-02-23T20:56:34;11.60;;;10.50;;
41466;SDS011;72625;53.700;19.958;2024-02-23T21:01:46;10.60;;;9.60;;
41466;SDS011;72625;53.700;19.958;2024-02-23T21:06:55;9.80;;;8.90;;
41466;SDS011;72625;53.700;19.958;2024-02-23T21:12:02;11.20;;;10.20;;
41466;SDS011;72625;53.700;19.958;2024-02-23T21:17:10;10.70;;;9.50;;
41466;SDS011;72625;53.700;19.958;2024-02-23T21:22:17;9.80;;;9.00;;
41466;SDS011;72625;53.700;19.958;2024-02-23T21:27:21;10.70;;;9.70;;
41466;SDS011;72625;53.700;19.958;2024-02-23T21:32:24;9.80;;;9.00;;
41466;SDS011;72625;53.700;19.958;2024-02-23T21:37:28;8.30;;;7.60;;
41466;SDS011;72625;53.700;19.958;2024-02-23T21:42:31;8.30;;;7.50;;
41466;SDS011;72625;53.700;19.958;2024-02-23T21:47:35;8.80;;;8.00;;
41466;SDS011;72625;53.700;19.958;2024-02-23T21:57:52;8.90;;;8.20;;
41466;SDS011;72625;53.700;19.958;2024-02-23T22:02:58;7.70;;;7.10;;
41466;SDS011;72625;53.700;19.958;2024-02-23T22:08:06;8.50;;;7.90;;
41466;SDS011;72625;53.700;19.958;2024-02-23T22:19:10;8.00;;;7.30;;
41466;SDS011;72625;53.700;19.958;2024-02-23T22:24:57;7.40;;;6.80;;
41466;SDS011;72625;53.700;19.958;2024-02-23T22:30:15;7.70;;;7.00;;
41466;SDS011;72625;53.700;19.958;2024-02-23T22:35:19;8.10;;;7.30;;
41466;SDS011;72625;53.700;19.958;2024-02-23T22:40:26;7.20;;;6.70;;
41466;SDS011;72625;53.700;19.958;2024-02-23T22:45:35;11.00;;;10.20;;
41466;SDS011;72625;53.700;19.958;2024-02-23T22:50:38;9.30;;;8.60;;
41466;SDS011;72625;53.700;19.958;2024-02-23T22:55:42;9.20;;;8.50;;
41466;SDS011;72625;53.700;19.958;2024-02-23T23:00:48;6.90;;;6.40;;
41466;SDS011;72625;53.700;19.958;2024-02-23T23:05:52;5.60;;;5.30;;
41466;SDS011;72625;53.700;19.958;2024-02-23T23:11:00;6.50;;;6.10;;
41466;SDS011;72625;53.700;19.958;2024-02-23T23:16:04;5.70;;;5.30;;
41466;SDS011;72625;53.700;19.958;2024-02-23T23:21:10;5.20;;;4.80;;
41466;SDS011;72625;53.700;19.958;2024-02-23T23:26:23;4.20;;;3.90;;
41466;SDS011;72625;53.700;19.958;2024-02-23T23:31:27;5.00;;;4.60;;
41466;SDS011;72625;53.700;19.958;2024-02-23T23:36:34;4.10;;;3.80;;
41466;SDS011;72625;53.700;19.958;2024-02-23T23:42:01;4.70;;;4.40;;
41466;SDS011;72625;53.700;19.958;2024-02-23T23:47:05;9.10;;;8.40;;
41466;SDS011;72625;53.700;19.958;2024-02-23T23:57:36;8.20;;;7.50;;
